sensor_id;sensor_type;location;lat;lon;timestamp;P1;durP1;ratioP1;P2;durP2;ratioP2
37453;SDS011;23315;52.078;4.756;2024-01-30T00:01:52;39.53;;;22.63;;
37453;SDS011;23315;52.078;4.756;2024-01-30T00:04:17;32.40;;;21.67;;
37453;SDS011;23315;52.078;4.756;2024-01-30T00:06:43;38.08;;;22.05;;
37453;SDS011;23315;52.078;4.756;2024-01-30T00:09:09;33.67;;;23.00;;
37453;SDS011;23315;52.078;4.756;2024-01-30T00:11:35;32.92;;;22.00;;
37453;SDS011;23315;52.078;4.756;2024-01-30T00:14:01;38.78;;;23.88;;
37453;SDS011;23315;52.078;4.756;2024-01-30T00:16:27;33.55;;;21.45;;
37453;SDS011;23315;52.078;4.756;2024-01-30T00:18:53;35.88;;;23.70;;
37453;SDS011;23315;52.078;4.756;2024-01-30T00:21:19;34.40;;;21.25;;
37453;SDS011;23315;52.078;4.756;2024-01-30T00:23:45;38.08;;;24.27;;
37453;SDS011;23315;52.078;4.756;2024-01-30T00:26:10;32.05;;;22.40;;
37453;SDS011;23315;52.078;4.756;2024-01-30T00:28:36;43.47;;;24.15;;
37453;SDS011;23315;52.078;4.756;2024-01-30T00:31:04;36.85;;;21.65;;
37453;SDS011;23315;52.078;4.756;2024-01-30T00:33:30;35.92;;;23.95;;
37453;SDS011;23315;52.078;4.756;2024-01-30T00:35:55;36.05;;;24.35;;
37453;SDS011;23315;52.078;4.756;2024-01-30T00:38:21;35.72;;;23.15;;
37453;SDS011;23315;52.078;4.756;2024-01-30T00:40:46;33.25;;;21.65;;
37453;SDS011;23315;52.078;4.756;2024-01-30T00:43:12;33.78;;;21.38;;
37453;SDS011;23315;52.078;4.756;2024-01-30T00:45:37;35.75;;;21.27;;
37453;SDS011;23315;52.078;4.756;2024-01-30T00:48:02;34.53;;;20.13;;
37453;SDS011;23315;52.078;4.756;2024-01-30T00:50:28;31.02;;;20.27;;
37453;SDS011;23315;52.078;4.756;2024-01-30T00:52:53;34.90;;;19.40;;
37453;SDS011;23315;52.078;4.756;2024-01-30T00:55:18;33.40;;;21.30;;
37453;SDS011;23315;52.078;4.756;2024-01-30T00:57:44;34.55;;;22.13;;
37453;SDS011;23315;52.078;4.756;2024-01-30T01:00:09;32.97;;;20.98;;
37453;SDS011;23315;52.078;4.756;2024-01-30T01:02:35;36.45;;;21.40;;
37453;SDS011;23315;52.078;4.756;2024-01-30T01:05:01;33.83;;;20.42;;
37453;SDS011;23315;52.078;4.756;2024-01-30T01:07:26;31.48;;;19.80;;
37453;SDS011;23315;52.078;4.756;2024-01-30T01:09:51;33.33;;;19.50;;
37453;SDS011;23315;52.078;4.756;2024-01-30T01:12:17;33.28;;;20.23;;
37453;SDS011;23315;52.078;4.756;2024-01-30T01:14:42;33.05;;;19.60;;
37453;SDS011;23315;52.078;4.756;2024-01-30T01:17:08;36.42;;;20.75;;
37453;SDS011;23315;52.078;4.756;2024-01-30T01:19:33;35.45;;;20.42;;
37453;SDS011;23315;52.078;4.756;2024-01-30T01:21:58;31.63;;;19.98;;
37453;SDS011;23315;52.078;4.756;2024-01-30T01:24:24;33.60;;;20.08;;
37453;SDS011;23315;52.078;4.756;2024-01-30T01:26:49;29.95;;;19.40;;
37453;SDS011;23315;52.078;4.756;2024-01-30T01:29:14;31.85;;;18.23;;
37453;SDS011;23315;52.078;4.756;2024-01-30T01:31:40;30.58;;;20.65;;
37453;SDS011;23315;52.078;4.756;2024-01-30T01:34:09;31.00;;;18.38;;
37453;SDS011;23315;52.078;4.756;2024-01-30T01:36:35;34.25;;;19.63;;
37453;SDS011;23315;52.078;4.756;2024-01-30T01:39:01;31.23;;;18.75;;
37453;SDS011;23315;52.078;4.756;2024-01-30T01:41:29;34.83;;;19.48;;
37453;SDS011;23315;52.078;4.756;2024-01-30T01:43:58;31.05;;;17.80;;
37453;SDS011;23315;52.078;4.756;2024-01-30T01:46:26;27.17;;;17.60;;
37453;SDS011;23315;52.078;4.756;2024-01-30T01:48:51;29.73;;;19.05;;
37453;SDS011;23315;52.078;4.756;2024-01-30T01:51:17;26.45;;;17.50;;
37453;SDS011;23315;52.078;4.756;2024-01-30T01:53:42;29.80;;;19.33;;
37453;SDS011;23315;52.078;4.756;2024-01-30T01:56:08;32.03;;;19.10;;
37453;SDS011;23315;52.078;4.756;2024-01-30T01:58:33;29.95;;;17.83;;
37453;SDS011;23315;52.078;4.756;2024-01-30T02:00:59;29.65;;;17.63;;
37453;SDS011;23315;52.078;4.756;2024-01-30T02:03:24;34.03;;;17.45;;
37453;SDS011;23315;52.078;4.756;2024-01-30T02:05:52;28.13;;;17.63;;
37453;SDS011;23315;52.078;4.756;2024-01-30T02:08:18;32.40;;;17.80;;
37453;SDS011;23315;52.078;4.756;2024-01-30T02:10:44;26.05;;;17.30;;
37453;SDS011;23315;52.078;4.756;2024-01-30T02:13:09;29.70;;;18.08;;
37453;SDS011;23315;52.078;4.756;2024-01-30T02:15:37;30.35;;;19.23;;
37453;SDS011;23315;52.078;4.756;2024-01-30T02:18:03;25.42;;;17.77;;
37453;SDS011;23315;52.078;4.756;2024-01-30T02:20:28;33.20;;;19.23;;
37453;SDS011;23315;52.078;4.756;2024-01-30T02:22:55;28.33;;;18.45;;
37453;SDS011;23315;52.078;4.756;2024-01-30T02:25:29;27.73;;;18.40;;
37453;SDS011;23315;52.078;4.756;2024-01-30T02:27:58;30.85;;;18.02;;
37453;SDS011;23315;52.078;4.756;2024-01-30T02:30:23;32.17;;;18.67;;
37453;SDS011;23315;52.078;4.756;2024-01-30T02:32:49;29.35;;;18.95;;
37453;SDS011;23315;52.078;4.756;2024-01-30T02:35:14;27.73;;;18.23;;
37453;SDS011;23315;52.078;4.756;2024-01-30T02:37:39;28.55;;;18.40;;
37453;SDS011;23315;52.078;4.756;2024-01-30T02:40:08;31.75;;;19.10;;
37453;SDS011;23315;52.078;4.756;2024-01-30T02:42:33;27.15;;;17.60;;
37453;SDS011;23315;52.078;4.756;2024-01-30T02:45:02;26.13;;;18.40;;
37453;SDS011;23315;52.078;4.756;2024-01-30T02:47:27;32.88;;;18.60;;
37453;SDS011;23315;52.078;4.756;2024-01-30T02:49:52;26.88;;;18.85;;
37453;SDS011;23315;52.078;4.756;2024-01-30T02:52:18;27.33;;;18.63;;
37453;SDS011;23315;52.078;4.756;2024-01-30T02:54:44;31.35;;;19.73;;
37453;SDS011;23315;52.078;4.756;2024-01-30T02:57:09;31.65;;;19.25;;
37453;SDS011;23315;52.078;4.756;2024-01-30T02:59:34;28.15;;;18.83;;
37453;SDS011;23315;52.078;4.756;2024-01-30T03:02:01;29.38;;;18.42;;
37453;SDS011;23315;52.078;4.756;2024-01-30T03:04:26;27.02;;;18.63;;
37453;SDS011;23315;52.078;4.756;2024-01-30T03:06:51;28.83;;;17.50;;
37453;SDS011;23315;52.078;4.756;2024-01-30T03:09:17;29.25;;;19.08;;
37453;SDS011;23315;52.078;4.756;2024-01-30T03:11:43;28.92;;;18.27;;
37453;SDS011;23315;52.078;4.756;2024-01-30T03:14:08;32.58;;;18.90;;
37453;SDS011;23315;52.078;4.756;2024-01-30T03:16:36;31.27;;;19.35;;
37453;SDS011;23315;52.078;4.756;2024-01-30T03:19:03;28.35;;;19.48;;
37453;SDS011;23315;52.078;4.756;2024-01-30T03:21:30;26.92;;;19.30;;
37453;SDS011;23315;52.078;4.756;2024-01-30T03:23:55;30.15;;;17.67;;
37453;SDS011;23315;52.078;4.756;2024-01-30T03:26:20;30.25;;;18.77;;
37453;SDS011;23315;52.078;4.756;2024-01-30T03:28:46;26.63;;;17.95;;
37453;SDS011;23315;52.078;4.756;2024-01-30T03:31:13;31.42;;;19.50;;
37453;SDS011;23315;52.078;4.756;2024-01-30T03:33:39;31.08;;;19.15;;
37453;SDS011;23315;52.078;4.756;2024-01-30T03:36:04;28.60;;;18.15;;
37453;SDS011;23315;52.078;4.756;2024-01-30T03:38:30;27.08;;;18.30;;
37453;SDS011;23315;52.078;4.756;2024-01-30T03:40:58;24.65;;;17.45;;
37453;SDS011;23315;52.078;4.756;2024-01-30T03:43:24;28.95;;;19.08;;
37453;SDS011;23315;52.078;4.756;2024-01-30T03:45:49;25.70;;;17.63;;
37453;SDS011;23315;52.078;4.756;2024-01-30T03:48:14;28.63;;;19.88;;
37453;SDS011;23315;52.078;4.756;2024-01-30T03:50:40;30.75;;;17.88;;
37453;SDS011;23315;52.078;4.756;2024-01-30T03:53:05;27.70;;;18.20;;
37453;SDS011;23315;52.078;4.756;2024-01-30T03:55:30;29.25;;;18.60;;
37453;SDS011;23315;52.078;4.756;2024-01-30T03:57:56;28.75;;;18.35;;
37453;SDS011;23315;52.078;4.756;2024-01-30T04:00:21;25.50;;;17.02;;
37453;SDS011;23315;52.078;4.756;2024-01-30T04:02:46;25.38;;;17.13;;
37453;SDS011;23315;52.078;4.756;2024-01-30T04:05:12;25.13;;;17.77;;
37453;SDS011;23315;52.078;4.756;2024-01-30T04:07:37;26.70;;;17.30;;
37453;SDS011;23315;52.078;4.756;2024-01-30T04:10:02;25.02;;;16.48;;
37453;SDS011;23315;52.078;4.756;2024-01-30T04:12:30;25.38;;;17.30;;
37453;SDS011;23315;52.078;4.756;2024-01-30T04:14:56;26.27;;;17.80;;
37453;SDS011;23315;52.078;4.756;2024-01-30T04:17:24;28.15;;;17.38;;
37453;SDS011;23315;52.078;4.756;2024-01-30T04:19:50;22.25;;;16.30;;
37453;SDS011;23315;52.078;4.756;2024-01-30T04:22:15;25.63;;;16.80;;
37453;SDS011;23315;52.078;4.756;2024-01-30T04:24:40;26.55;;;16.88;;
37453;SDS011;23315;52.078;4.756;2024-01-30T04:27:05;26.48;;;17.20;;
37453;SDS011;23315;52.078;4.756;2024-01-30T04:29:31;22.90;;;16.27;;
37453;SDS011;23315;52.078;4.756;2024-01-30T04:31:57;27.80;;;16.95;;
37453;SDS011;23315;52.078;4.756;2024-01-30T04:34:23;31.92;;;17.80;;
37453;SDS011;23315;52.078;4.756;2024-01-30T04:36:48;28.48;;;17.70;;
37453;SDS011;23315;52.078;4.756;2024-01-30T04:39:13;28.67;;;16.50;;
37453;SDS011;23315;52.078;4.756;2024-01-30T04:41:39;23.77;;;16.63;;
37453;SDS011;23315;52.078;4.756;2024-01-30T04:44:04;29.73;;;16.38;;
37453;SDS011;23315;52.078;4.756;2024-01-30T04:46:30;24.48;;;15.38;;
37453;SDS011;23315;52.078;4.756;2024-01-30T04:48:55;24.58;;;15.98;;
37453;SDS011;23315;52.078;4.756;2024-01-30T04:51:20;24.77;;;16.42;;
37453;SDS011;23315;52.078;4.756;2024-01-30T04:53:46;24.70;;;16.85;;
37453;SDS011;23315;52.078;4.756;2024-01-30T04:56:11;26.50;;;15.93;;
37453;SDS011;23315;52.078;4.756;2024-01-30T04:58:36;26.13;;;16.90;;
37453;SDS011;23315;52.078;4.756;2024-01-30T05:01:02;22.50;;;15.02;;
37453;SDS011;23315;52.078;4.756;2024-01-30T05:03:27;27.67;;;16.73;;
37453;SDS011;23315;52.078;4.756;2024-01-30T05:05:53;24.92;;;15.27;;
37453;SDS011;23315;52.078;4.756;2024-01-30T05:08:18;26.52;;;16.60;;
37453;SDS011;23315;52.078;4.756;2024-01-30T05:10:44;24.20;;;14.60;;
37453;SDS011;23315;52.078;4.756;2024-01-30T05:13:09;23.88;;;15.57;;
37453;SDS011;23315;52.078;4.756;2024-01-30T05:15:35;22.63;;;15.65;;
37453;SDS011;23315;52.078;4.756;2024-01-30T05:18:00;27.70;;;15.55;;
37453;SDS011;23315;52.078;4.756;2024-01-30T05:20:25;22.67;;;16.60;;
37453;SDS011;23315;52.078;4.756;2024-01-30T05:22:53;24.33;;;15.02;;
37453;SDS011;23315;52.078;4.756;2024-01-30T05:25:18;24.35;;;15.77;;
37453;SDS011;23315;52.078;4.756;2024-01-30T05:27:44;22.98;;;16.52;;
37453;SDS011;23315;52.078;4.756;2024-01-30T05:30:09;26.92;;;15.43;;
37453;SDS011;23315;52.078;4.756;2024-01-30T05:32:35;24.10;;;15.25;;
37453;SDS011;23315;52.078;4.756;2024-01-30T05:35:00;26.05;;;15.88;;
37453;SDS011;23315;52.078;4.756;2024-01-30T05:37:26;20.02;;;14.63;;
37453;SDS011;23315;52.078;4.756;2024-01-30T05:39:51;24.52;;;15.57;;
37453;SDS011;23315;52.078;4.756;2024-01-30T05:42:16;26.40;;;15.93;;
37453;SDS011;23315;52.078;4.756;2024-01-30T05:44:42;22.70;;;14.32;;
37453;SDS011;23315;52.078;4.756;2024-01-30T05:47:07;25.92;;;15.13;;
37453;SDS011;23315;52.078;4.756;2024-01-30T05:49:33;25.65;;;14.93;;
37453;SDS011;23315;52.078;4.756;2024-01-30T05:51:58;23.38;;;15.10;;
37453;SDS011;23315;52.078;4.756;2024-01-30T05:54:23;23.77;;;15.07;;
37453;SDS011;23315;52.078;4.756;2024-01-30T05:56:48;22.20;;;16.02;;
37453;SDS011;23315;52.078;4.756;2024-01-30T05:59:14;22.48;;;14.80;;
37453;SDS011;23315;52.078;4.756;2024-01-30T06:01:45;27.40;;;17.02;;
37453;SDS011;23315;52.078;4.756;2024-01-30T06:04:11;24.65;;;15.13;;
37453;SDS011;23315;52.078;4.756;2024-01-30T06:06:36;23.52;;;14.80;;
37453;SDS011;23315;52.078;4.756;2024-01-30T06:09:02;24.75;;;14.70;;
37453;SDS011;23315;52.078;4.756;2024-01-30T06:11:27;20.80;;;15.20;;
37453;SDS011;23315;52.078;4.756;2024-01-30T06:13:52;25.30;;;15.43;;
37453;SDS011;23315;52.078;4.756;2024-01-30T06:16:18;20.02;;;14.07;;
37453;SDS011;23315;52.078;4.756;2024-01-30T06:18:45;25.40;;;16.42;;
37453;SDS011;23315;52.078;4.756;2024-01-30T06:21:11;23.08;;;15.38;;
37453;SDS011;23315;52.078;4.756;2024-01-30T06:23:36;23.67;;;14.52;;
37453;SDS011;23315;52.078;4.756;2024-01-30T06:26:02;26.35;;;14.55;;
37453;SDS011;23315;52.078;4.756;2024-01-30T06:28:27;21.13;;;15.10;;
37453;SDS011;23315;52.078;4.756;2024-01-30T06:30:52;21.67;;;14.73;;
37453;SDS011;23315;52.078;4.756;2024-01-30T06:33:18;23.27;;;14.57;;
37453;SDS011;23315;52.078;4.756;2024-01-30T06:35:43;23.65;;;14.05;;
37453;SDS011;23315;52.078;4.756;2024-01-30T06:38:10;23.92;;;14.20;;
37453;SDS011;23315;52.078;4.756;2024-01-30T06:40:36;23.33;;;15.02;;
37453;SDS011;23315;52.078;4.756;2024-01-30T06:43:01;21.83;;;15.30;;
37453;SDS011;23315;52.078;4.756;2024-01-30T06:45:26;19.85;;;13.82;;
37453;SDS011;23315;52.078;4.756;2024-01-30T06:47:52;23.65;;;15.50;;
37453;SDS011;23315;52.078;4.756;2024-01-30T06:50:17;24.73;;;13.65;;
37453;SDS011;23315;52.078;4.756;2024-01-30T06:52:43;20.00;;;14.13;;
37453;SDS011;23315;52.078;4.756;2024-01-30T06:55:08;23.77;;;14.35;;
37453;SDS011;23315;52.078;4.756;2024-01-30T06:57:34;21.40;;;14.27;;
37453;SDS011;23315;52.078;4.756;2024-01-30T06:59:59;22.15;;;13.80;;
37453;SDS011;23315;52.078;4.756;2024-01-30T07:02:25;20.90;;;13.57;;
37453;SDS011;23315;52.078;4.756;2024-01-30T07:04:50;28.40;;;14.02;;
37453;SDS011;23315;52.078;4.756;2024-01-30T07:07:15;22.27;;;14.40;;
37453;SDS011;23315;52.078;4.756;2024-01-30T07:09:41;21.83;;;13.98;;
37453;SDS011;23315;52.078;4.756;2024-01-30T07:12:06;21.80;;;12.77;;
37453;SDS011;23315;52.078;4.756;2024-01-30T07:14:34;23.40;;;12.77;;
37453;SDS011;23315;52.078;4.756;2024-01-30T07:17:00;21.05;;;12.32;;
37453;SDS011;23315;52.078;4.756;2024-01-30T07:19:25;23.13;;;13.35;;
37453;SDS011;23315;52.078;4.756;2024-01-30T07:21:51;22.98;;;13.25;;
37453;SDS011;23315;52.078;4.756;2024-01-30T07:24:16;23.40;;;12.82;;
37453;SDS011;23315;52.078;4.756;2024-01-30T07:26:41;26.02;;;13.05;;
37453;SDS011;23315;52.078;4.756;2024-01-30T07:29:07;21.77;;;13.38;;
37453;SDS011;23315;52.078;4.756;2024-01-30T07:31:32;26.50;;;12.25;;
37453;SDS011;23315;52.078;4.756;2024-01-30T07:33:57;23.10;;;12.45;;
37453;SDS011;23315;52.078;4.756;2024-01-30T07:36:23;23.73;;;11.98;;
37453;SDS011;23315;52.078;4.756;2024-01-30T07:38:48;26.10;;;11.77;;
37453;SDS011;23315;52.078;4.756;2024-01-30T07:41:13;23.65;;;11.95;;
37453;SDS011;23315;52.078;4.756;2024-01-30T07:43:39;25.98;;;12.25;;
37453;SDS011;23315;52.078;4.756;2024-01-30T07:46:04;22.15;;;11.65;;
37453;SDS011;23315;52.078;4.756;2024-01-30T07:48:31;19.20;;;11.73;;
37453;SDS011;23315;52.078;4.756;2024-01-30T07:50:58;24.00;;;11.77;;
37453;SDS011;23315;52.078;4.756;2024-01-30T07:53:24;21.08;;;11.68;;
37453;SDS011;23315;52.078;4.756;2024-01-30T07:55:49;20.40;;;10.57;;
37453;SDS011;23315;52.078;4.756;2024-01-30T07:58:15;26.25;;;12.02;;
37453;SDS011;23315;52.078;4.756;2024-01-30T08:00:40;19.83;;;10.48;;
37453;SDS011;23315;52.078;4.756;2024-01-30T08:03:05;23.17;;;12.30;;
37453;SDS011;23315;52.078;4.756;2024-01-30T08:05:31;21.10;;;11.13;;
37453;SDS011;23315;52.078;4.756;2024-01-30T08:07:56;24.52;;;12.35;;
37453;SDS011;23315;52.078;4.756;2024-01-30T08:10:24;22.25;;;12.23;;
37453;SDS011;23315;52.078;4.756;2024-01-30T08:12:49;23.67;;;12.15;;
37453;SDS011;23315;52.078;4.756;2024-01-30T08:15:14;22.20;;;11.40;;
37453;SDS011;23315;52.078;4.756;2024-01-30T08:17:40;25.75;;;11.88;;
37453;SDS011;23315;52.078;4.756;2024-01-30T08:20:06;21.80;;;12.23;;
37453;SDS011;23315;52.078;4.756;2024-01-30T08:22:33;21.02;;;11.60;;
37453;SDS011;23315;52.078;4.756;2024-01-30T08:24:58;24.45;;;12.10;;
37453;SDS011;23315;52.078;4.756;2024-01-30T08:27:24;25.77;;;12.55;;
37453;SDS011;23315;52.078;4.756;2024-01-30T08:29:49;16.88;;;9.68;;
37453;SDS011;23315;52.078;4.756;2024-01-30T08:32:15;21.95;;;9.60;;
37453;SDS011;23315;52.078;4.756;2024-01-30T08:34:40;24.50;;;10.38;;
37453;SDS011;23315;52.078;4.756;2024-01-30T08:37:06;22.73;;;9.27;;
37453;SDS011;23315;52.078;4.756;2024-01-30T08:39:31;26.15;;;10.60;;
37453;SDS011;23315;52.078;4.756;2024-01-30T08:41:57;22.10;;;9.93;;
37453;SDS011;23315;52.078;4.756;2024-01-30T08:44:22;21.52;;;10.35;;
37453;SDS011;23315;52.078;4.756;2024-01-30T08:46:48;22.33;;;10.18;;
37453;SDS011;23315;52.078;4.756;2024-01-30T08:49:16;21.63;;;8.98;;
37453;SDS011;23315;52.078;4.756;2024-01-30T08:51:41;21.95;;;8.88;;
37453;SDS011;23315;52.078;4.756;2024-01-30T08:54:06;23.88;;;9.25;;
37453;SDS011;23315;52.078;4.756;2024-01-30T08:56:32;24.95;;;9.30;;
37453;SDS011;23315;52.078;4.756;2024-01-30T08:58:57;21.45;;;8.18;;
37453;SDS011;23315;52.078;4.756;2024-01-30T09:01:23;26.50;;;9.43;;
37453;SDS011;23315;52.078;4.756;2024-01-30T09:03:48;20.92;;;8.98;;
37453;SDS011;23315;52.078;4.756;2024-01-30T09:06:13;23.40;;;8.30;;
37453;SDS011;23315;52.078;4.756;2024-01-30T09:08:39;20.27;;;5.95;;
37453;SDS011;23315;52.078;4.756;2024-01-30T09:11:14;24.33;;;8.57;;
37453;SDS011;23315;52.078;4.756;2024-01-30T09:13:40;23.60;;;7.68;;
37453;SDS011;23315;52.078;4.756;2024-01-30T09:16:05;24.80;;;7.50;;
37453;SDS011;23315;52.078;4.756;2024-01-30T09:18:31;22.05;;;7.97;;
37453;SDS011;23315;52.078;4.756;2024-01-30T09:20:56;18.10;;;6.82;;
37453;SDS011;23315;52.078;4.756;2024-01-30T09:23:22;21.20;;;5.88;;
37453;SDS011;23315;52.078;4.756;2024-01-30T09:25:47;27.75;;;5.55;;
37453;SDS011;23315;52.078;4.756;2024-01-30T09:28:13;22.65;;;5.72;;
37453;SDS011;23315;52.078;4.756;2024-01-30T09:30:38;32.58;;;8.18;;
37453;SDS011;23315;52.078;4.756;2024-01-30T09:33:04;23.15;;;5.43;;
37453;SDS011;23315;52.078;4.756;2024-01-30T09:35:30;27.50;;;6.15;;
37453;SDS011;23315;52.078;4.756;2024-01-30T09:37:55;30.00;;;7.90;;
37453;SDS011;23315;52.078;4.756;2024-01-30T09:40:22;24.67;;;7.45;;
37453;SDS011;23315;52.078;4.756;2024-01-30T09:42:47;32.85;;;6.88;;
37453;SDS011;23315;52.078;4.756;2024-01-30T09:45:15;26.88;;;6.93;;
37453;SDS011;23315;52.078;4.756;2024-01-30T09:47:43;32.90;;;7.82;;
37453;SDS011;23315;52.078;4.756;2024-01-30T09:50:10;27.27;;;6.85;;
37453;SDS011;23315;52.078;4.756;2024-01-30T09:52:36;29.92;;;6.15;;
37453;SDS011;23315;52.078;4.756;2024-01-30T09:55:02;21.83;;;5.93;;
37453;SDS011;23315;52.078;4.756;2024-01-30T09:57:28;24.70;;;6.30;;
37453;SDS011;23315;52.078;4.756;2024-01-30T09:59:53;26.70;;;6.22;;
37453;SDS011;23315;52.078;4.756;2024-01-30T10:02:19;15.18;;;4.93;;
37453;SDS011;23315;52.078;4.756;2024-01-30T10:04:47;17.85;;;5.13;;
37453;SDS011;23315;52.078;4.756;2024-01-30T10:07:13;29.20;;;4.88;;
37453;SDS011;23315;52.078;4.756;2024-01-30T10:09:39;37.75;;;7.10;;
37453;SDS011;23315;52.078;4.756;2024-01-30T10:12:05;29.02;;;5.50;;
37453;SDS011;23315;52.078;4.756;2024-01-30T10:14:31;27.50;;;4.45;;
37453;SDS011;23315;52.078;4.756;2024-01-30T10:16:57;19.65;;;4.22;;
37453;SDS011;23315;52.078;4.756;2024-01-30T10:19:22;13.50;;;2.95;;
37453;SDS011;23315;52.078;4.756;2024-01-30T10:21:48;20.20;;;4.35;;
37453;SDS011;23315;52.078;4.756;2024-01-30T10:24:13;15.02;;;3.33;;
37453;SDS011;23315;52.078;4.756;2024-01-30T10:26:39;19.10;;;2.85;;
37453;SDS011;23315;52.078;4.756;2024-01-30T10:29:04;13.70;;;2.08;;
37453;SDS011;23315;52.078;4.756;2024-01-30T10:31:30;7.65;;;2.25;;
37453;SDS011;23315;52.078;4.756;2024-01-30T10:33:55;13.48;;;2.78;;
37453;SDS011;23315;52.078;4.756;2024-01-30T10:36:20;15.65;;;2.92;;
37453;SDS011;23315;52.078;4.756;2024-01-30T10:38:51;14.70;;;3.63;;
37453;SDS011;23315;52.078;4.756;2024-01-30T10:41:16;20.85;;;3.60;;
37453;SDS011;23315;52.078;4.756;2024-01-30T10:43:50;20.92;;;2.72;;
37453;SDS011;23315;52.078;4.756;2024-01-30T10:46:24;21.73;;;3.33;;
37453;SDS011;23315;52.078;4.756;2024-01-30T10:48:58;17.88;;;3.65;;
37453;SDS011;23315;52.078;4.756;2024-01-30T10:51:25;13.70;;;2.50;;
37453;SDS011;23315;52.078;4.756;2024-01-30T10:53:51;20.08;;;3.58;;
37453;SDS011;23315;52.078;4.756;2024-01-30T10:56:18;21.08;;;2.90;;
37453;SDS011;23315;52.078;4.756;2024-01-30T10:58:45;17.77;;;2.72;;
37453;SDS011;23315;52.078;4.756;2024-01-30T11:01:11;11.43;;;1.90;;
37453;SDS011;23315;52.078;4.756;2024-01-30T11:03:37;15.23;;;2.70;;
37453;SDS011;23315;52.078;4.756;2024-01-30T11:06:02;21.33;;;2.38;;
37453;SDS011;23315;52.078;4.756;2024-01-30T11:08:28;14.05;;;2.33;;
37453;SDS011;23315;52.078;4.756;2024-01-30T11:10:57;12.45;;;2.70;;
37453;SDS011;23315;52.078;4.756;2024-01-30T11:13:30;14.90;;;2.55;;
37453;SDS011;23315;52.078;4.756;2024-01-30T11:16:00;16.40;;;2.28;;
37453;SDS011;23315;52.078;4.756;2024-01-30T11:18:26;15.52;;;2.17;;
37453;SDS011;23315;52.078;4.756;2024-01-30T11:20:55;15.40;;;2.63;;
37453;SDS011;23315;52.078;4.756;2024-01-30T11:23:22;14.45;;;2.80;;
37453;SDS011;23315;52.078;4.756;2024-01-30T11:25:47;14.95;;;2.75;;
37453;SDS011;23315;52.078;4.756;2024-01-30T11:28:13;22.40;;;3.70;;
37453;SDS011;23315;52.078;4.756;2024-01-30T11:30:40;13.38;;;3.20;;
37453;SDS011;23315;52.078;4.756;2024-01-30T11:33:12;16.92;;;3.10;;
37453;SDS011;23315;52.078;4.756;2024-01-30T11:35:39;11.52;;;3.53;;
37453;SDS011;23315;52.078;4.756;2024-01-30T11:38:06;15.20;;;3.22;;
37453;SDS011;23315;52.078;4.756;2024-01-30T11:40:33;15.05;;;3.13;;
37453;SDS011;23315;52.078;4.756;2024-01-30T11:43:00;16.80;;;3.03;;
37453;SDS011;23315;52.078;4.756;2024-01-30T11:45:26;17.38;;;3.63;;
37453;SDS011;23315;52.078;4.756;2024-01-30T11:47:52;21.67;;;4.20;;
37453;SDS011;23315;52.078;4.756;2024-01-30T11:50:18;21.63;;;4.10;;
37453;SDS011;23315;52.078;4.756;2024-01-30T11:52:43;22.23;;;3.75;;
37453;SDS011;23315;52.078;4.756;2024-01-30T11:55:09;16.25;;;4.07;;
37453;SDS011;23315;52.078;4.756;2024-01-30T11:57:34;20.98;;;4.32;;
37453;SDS011;23315;52.078;4.756;2024-01-30T12:00:01;19.92;;;3.97;;
37453;SDS011;23315;52.078;4.756;2024-01-30T12:02:35;18.95;;;3.88;;
37453;SDS011;23315;52.078;4.756;2024-01-30T12:05:13;30.10;;;3.75;;
37453;SDS011;23315;52.078;4.756;2024-01-30T12:07:39;25.80;;;4.40;;
37453;SDS011;23315;52.078;4.756;2024-01-30T12:10:04;25.10;;;4.85;;
37453;SDS011;23315;52.078;4.756;2024-01-30T12:12:30;19.05;;;3.67;;
37453;SDS011;23315;52.078;4.756;2024-01-30T12:14:56;22.65;;;3.90;;
37453;SDS011;23315;52.078;4.756;2024-01-30T12:17:31;29.85;;;5.72;;
37453;SDS011;23315;52.078;4.756;2024-01-30T12:20:04;26.35;;;4.22;;
37453;SDS011;23315;52.078;4.756;2024-01-30T12:22:40;16.92;;;4.60;;
37453;SDS011;23315;52.078;4.756;2024-01-30T12:25:16;16.65;;;3.53;;
37453;SDS011;23315;52.078;4.756;2024-01-30T12:27:43;24.02;;;3.80;;
37453;SDS011;23315;52.078;4.756;2024-01-30T12:30:15;16.83;;;3.55;;
37453;SDS011;23315;52.078;4.756;2024-01-30T12:32:41;20.20;;;4.88;;
37453;SDS011;23315;52.078;4.756;2024-01-30T12:35:09;21.17;;;4.03;;
37453;SDS011;23315;52.078;4.756;2024-01-30T12:37:35;23.80;;;4.13;;
37453;SDS011;23315;52.078;4.756;2024-01-30T12:40:01;23.20;;;4.03;;
37453;SDS011;23315;52.078;4.756;2024-01-30T12:42:27;21.50;;;3.80;;
37453;SDS011;23315;52.078;4.756;2024-01-30T12:44:52;21.45;;;6.05;;
37453;SDS011;23315;52.078;4.756;2024-01-30T12:47:18;24.98;;;4.43;;
37453;SDS011;23315;52.078;4.756;2024-01-30T12:49:43;24.88;;;3.95;;
37453;SDS011;23315;52.078;4.756;2024-01-30T12:52:10;18.30;;;3.33;;
37453;SDS011;23315;52.078;4.756;2024-01-30T12:54:36;19.75;;;3.20;;
37453;SDS011;23315;52.078;4.756;2024-01-30T12:57:01;12.95;;;3.00;;
37453;SDS011;23315;52.078;4.756;2024-01-30T12:59:27;15.05;;;2.90;;
37453;SDS011;23315;52.078;4.756;2024-01-30T13:01:52;12.35;;;2.90;;
37453;SDS011;23315;52.078;4.756;2024-01-30T13:04:18;15.85;;;2.97;;
37453;SDS011;23315;52.078;4.756;2024-01-30T13:06:43;12.40;;;2.25;;
37453;SDS011;23315;52.078;4.756;2024-01-30T13:09:08;9.93;;;2.38;;
37453;SDS011;23315;52.078;4.756;2024-01-30T13:11:37;11.80;;;2.53;;
37453;SDS011;23315;52.078;4.756;2024-01-30T13:14:02;12.60;;;1.80;;
37453;SDS011;23315;52.078;4.756;2024-01-30T13:16:28;8.23;;;2.45;;
37453;SDS011;23315;52.078;4.756;2024-01-30T13:18:53;6.13;;;2.25;;
37453;SDS011;23315;52.078;4.756;2024-01-30T13:21:20;11.07;;;3.42;;
37453;SDS011;23315;52.078;4.756;2024-01-30T13:23:46;10.23;;;2.90;;
37453;SDS011;23315;52.078;4.756;2024-01-30T13:26:11;9.93;;;2.78;;
37453;SDS011;23315;52.078;4.756;2024-01-30T13:28:37;16.00;;;3.92;;
37453;SDS011;23315;52.078;4.756;2024-01-30T13:31:02;16.50;;;3.92;;
37453;SDS011;23315;52.078;4.756;2024-01-30T13:33:27;10.77;;;3.00;;
37453;SDS011;23315;52.078;4.756;2024-01-30T13:35:53;14.48;;;3.20;;
37453;SDS011;23315;52.078;4.756;2024-01-30T13:38:18;15.30;;;3.47;;
37453;SDS011;23315;52.078;4.756;2024-01-30T13:40:43;14.65;;;3.33;;
37453;SDS011;23315;52.078;4.756;2024-01-30T13:43:11;15.43;;;3.83;;
37453;SDS011;23315;52.078;4.756;2024-01-30T13:45:37;17.98;;;3.92;;
37453;SDS011;23315;52.078;4.756;2024-01-30T13:48:02;14.35;;;5.28;;
37453;SDS011;23315;52.078;4.756;2024-01-30T13:50:28;18.17;;;5.75;;
37453;SDS011;23315;52.078;4.756;2024-01-30T13:52:53;15.25;;;4.82;;
37453;SDS011;23315;52.078;4.756;2024-01-30T13:55:22;14.10;;;5.40;;
37453;SDS011;23315;52.078;4.756;2024-01-30T13:57:52;23.27;;;6.35;;
37453;SDS011;23315;52.078;4.756;2024-01-30T14:00:18;13.68;;;5.88;;
37453;SDS011;23315;52.078;4.756;2024-01-30T14:02:43;22.92;;;7.40;;
37453;SDS011;23315;52.078;4.756;2024-01-30T14:05:08;26.35;;;7.78;;
37453;SDS011;23315;52.078;4.756;2024-01-30T14:07:35;24.92;;;7.97;;
37453;SDS011;23315;52.078;4.756;2024-01-30T14:10:01;19.92;;;7.85;;
37453;SDS011;23315;52.078;4.756;2024-01-30T14:12:26;20.50;;;7.93;;
37453;SDS011;23315;52.078;4.756;2024-01-30T14:14:51;24.02;;;9.60;;
37453;SDS011;23315;52.078;4.756;2024-01-30T14:17:23;25.45;;;8.32;;
37453;SDS011;23315;52.078;4.756;2024-01-30T14:19:48;22.58;;;8.30;;